createdAt,value
2023-05-21T02:33:42.609Z,13.27
2023-05-21T02:43:33.932Z,13.14
2023-05-21T15:20:37.018Z,22.95
2023-05-21T15:23:23.489Z,22.57
2023-05-21T15:26:09.280Z,22.83
2023-05-21T15:28:55.584Z,22.77
2023-05-21T15:31:41.007Z,22.73
2023-05-21T15:34:26.858Z,22.66
2023-05-21T15:37:15.412Z,22.47
2023-05-21T15:40:02.066Z,22.64
2023-05-21T15:42:47.720Z,22.66
2023-05-21T15:45:33.537Z,22.32
2023-05-21T15:48:23.091Z,22.44
2023-05-21T15:51:09.225Z,22.43
2023-05-21T15:53:54.758Z,22.48
2023-05-21T15:56:43.226Z,22.39
2023-05-21T15:59:29.777Z,22.61
2023-05-21T16:02:15.722Z,22.60
2023-05-21T16:05:01.588Z,22.62
2023-05-21T16:07:48.046Z,22.62
2023-05-21T16:10:33.454Z,22.64
2023-05-21T16:13:19.442Z,22.60
2023-05-21T16:16:05.275Z,22.63
2023-05-21T16:18:51.379Z,22.67
2023-05-21T16:21:38.324Z,22.67
2023-05-21T16:24:24.608Z,22.72
2023-05-21T16:27:10.159Z,22.77
2023-05-21T16:29:56.234Z,22.76
2023-05-21T16:32:42.033Z,22.71
2023-05-21T16:35:27.816Z,22.77
2023-05-21T16:38:13.621Z,22.54
2023-05-21T16:40:59.429Z,22.73
2023-05-21T16:43:45.582Z,22.71
2023-05-21T16:46:31.812Z,22.67
2023-05-21T16:49:17.929Z,22.67
2023-05-21T16:52:03.900Z,22.48
2023-05-21T16:54:49.383Z,22.60
2023-05-21T16:57:35.748Z,22.57
2023-05-21T17:00:21.598Z,22.48
2023-05-21T17:03:07.483Z,22.44
2023-05-21T17:05:53.334Z,22.35
2023-05-21T17:08:39.322Z,22.30
2023-05-21T17:11:25.181Z,22.21
2023-05-21T17:14:13.505Z,22.01
2023-05-21T17:17:03.231Z,22.11
2023-05-21T17:19:49.359Z,21.99
2023-05-21T17:22:34.862Z,21.97
2023-05-21T17:25:21.040Z,21.78
2023-05-21T17:28:06.740Z,21.81
2023-05-21T17:30:52.755Z,21.67
2023-05-21T17:33:39.754Z,21.53
2023-05-21T17:36:25.866Z,21.48
2023-05-21T17:39:11.583Z,21.49
2023-05-21T17:41:57.700Z,21.35
2023-05-21T17:44:43.791Z,21.32
2023-05-21T17:47:29.705Z,21.21
2023-05-21T17:50:15.221Z,20.94
2023-05-21T17:53:00.884Z,21.09
2023-05-21T17:55:46.434Z,20.62
2023-05-21T17:58:32.566Z,20.86
2023-05-21T18:01:18.706Z,20.82
2023-05-21T18:04:06.186Z,20.70
2023-05-21T18:06:52.200Z,20.69
2023-05-21T18:09:38.189Z,20.55
2023-05-21T18:12:23.719Z,20.52
2023-05-21T18:15:09.767Z,20.47
2023-05-21T18:17:56.004Z,20.37
2023-05-21T18:20:42.056Z,20.24
2023-05-21T18:23:28.877Z,20.18
2023-05-21T18:26:15.705Z,19.77
2023-05-21T18:29:00.983Z,19.77
2023-05-21T18:31:46.959Z,19.97
2023-05-21T18:34:33.228Z,19.71
2023-05-21T18:37:19.117Z,19.50
2023-05-21T18:40:08.364Z,19.69
2023-05-21T18:42:54.495Z,19.59
2023-05-21T18:45:40.731Z,19.55
2023-05-21T18:48:26.773Z,19.18
2023-05-21T18:51:12.415Z,19.07
2023-05-21T18:53:58.725Z,19.30
2023-05-21T18:56:44.627Z,19.23
2023-05-21T18:59:31.275Z,19.15
2023-05-21T19:02:17.235Z,19.08
2023-05-21T19:05:03.529Z,18.91
2023-05-21T19:07:49.639Z,18.90
2023-05-21T19:13:23.545Z,18.74
2023-05-21T19:16:11.431Z,18.67
2023-05-21T19:18:57.253Z,18.68
2023-05-21T19:21:43.561Z,18.54
2023-05-21T19:24:29.601Z,18.29
2023-05-21T19:27:16.375Z,18.11
2023-05-21T19:30:02.262Z,18.44
2023-05-21T19:32:48.707Z,18.38
2023-05-21T19:35:34.995Z,18.26
2023-05-21T19:38:21.126Z,18.23
2023-05-21T19:41:06.452Z,18.18
2023-05-21T19:43:52.181Z,18.13
2023-05-21T19:46:37.817Z,17.96
2023-05-21T19:49:23.800Z,18.01
2023-05-21T19:52:10.565Z,17.99
2023-05-21T19:55:03.259Z,17.85
2023-05-21T19:57:49.392Z,17.80
2023-05-21T20:00:35.773Z,17.86
2023-05-21T20:03:22.049Z,17.67
2023-05-21T20:06:07.822Z,17.76
2023-05-21T20:08:53.936Z,17.63
2023-05-21T20:11:40.065Z,17.67
2023-05-21T20:14:25.875Z,17.48
2023-05-21T20:17:12.046Z,17.57
2023-05-21T20:19:59.111Z,17.45
2023-05-21T20:22:45.969Z,17.44
2023-05-21T20:25:31.958Z,17.14
2023-05-21T20:28:19.392Z,17.30
2023-05-21T20:31:06.067Z,17.22
2023-05-21T20:33:53.723Z,17.19
2023-05-21T20:36:43.541Z,17.12
2023-05-21T20:39:29.885Z,16.76
2023-05-21T20:42:16.207Z,17.10
2023-05-21T20:45:03.212Z,17.07
2023-05-21T20:47:50.643Z,17.12
2023-05-21T20:50:37.481Z,16.99
2023-05-21T20:53:24.049Z,16.95
2023-05-21T20:56:11.697Z,16.60
2023-05-21T20:58:58.066Z,16.70
2023-05-21T21:01:44.037Z,16.73
2023-05-21T21:04:30.073Z,16.60
2023-05-21T21:07:18.153Z,16.37
2023-05-21T21:10:04.628Z,16.22
2023-05-21T21:12:50.898Z,16.51
2023-05-21T21:15:36.901Z,16.47
2023-05-21T21:18:22.691Z,16.38
2023-05-21T21:21:08.072Z,16.22
2023-05-21T21:23:53.922Z,16.35
2023-05-21T21:26:40.056Z,16.11
2023-05-21T21:29:26.434Z,16.02
2023-05-21T21:32:12.430Z,16.15
2023-05-21T21:34:58.652Z,16.23
2023-05-21T21:37:44.264Z,16.15
2023-05-21T21:40:30.449Z,16.13
2023-05-21T21:43:15.833Z,16.03
2023-05-21T21:46:01.964Z,15.80
2023-05-21T21:48:47.785Z,16.00
2023-05-21T21:51:33.986Z,15.87
2023-05-21T21:54:19.941Z,15.92
2023-05-21T21:57:05.857Z,16.07
2023-05-21T21:59:51.635Z,16.18
2023-05-21T22:02:37.900Z,16.08
2023-05-21T22:05:23.636Z,16.38
2023-05-21T22:08:10.053Z,16.45
2023-05-21T22:10:56.245Z,16.67
2023-05-21T22:13:42.002Z,16.50
2023-05-21T22:16:28.346Z,16.73
2023-05-21T22:19:16.036Z,16.58
2023-05-21T22:22:04.050Z,16.26
2023-05-21T22:24:49.961Z,15.88
2023-05-21T22:27:36.525Z,15.98
2023-05-21T22:30:23.056Z,15.88
2023-05-21T22:33:09.096Z,15.88
2023-05-21T22:35:55.485Z,15.41
2023-05-21T22:38:40.965Z,15.32
2023-05-21T22:41:27.129Z,15.11
2023-05-21T22:44:12.507Z,15.58
2023-05-21T22:47:01.057Z,15.70
2023-05-21T22:49:47.857Z,15.83
2023-05-21T22:52:34.576Z,15.89
2023-05-21T22:55:20.308Z,15.77
2023-05-21T22:58:06.431Z,15.97
2023-05-21T23:00:51.790Z,16.03
2023-05-21T23:03:37.634Z,15.93
2023-05-21T23:06:23.423Z,15.75
2023-05-21T23:09:09.100Z,15.28
2023-05-21T23:11:54.572Z,15.37
2023-05-21T23:14:40.445Z,15.13
2023-05-21T23:17:26.069Z,15.06
2023-05-21T23:20:12.330Z,14.85
2023-05-21T23:22:57.905Z,15.29
2023-05-21T23:25:44.004Z,15.29
2023-05-21T23:28:29.789Z,15.35
2023-05-21T23:31:15.901Z,15.44
2023-05-21T23:34:02.811Z,15.40
2023-05-21T23:36:48.624Z,15.42
2023-05-21T23:39:34.403Z,15.32
2023-05-21T23:42:20.367Z,15.32
2023-05-21T23:45:06.491Z,15.28
2023-05-21T23:47:52.465Z,15.22
2023-05-21T23:50:38.757Z,15.04
2023-05-21T23:53:25.827Z,14.78
2023-05-21T23:56:11.651Z,15.07
2023-05-21T23:58:57.740Z,14.96
